LESA

Salamanca Airport

Airport
ICAO code
LESA
IATA Code
SLM
Summary
ICAO Region
EUR
ICAO Territory
Location

, Castilla y Leon

Serving
Salamanca
Elevation
2595 ft
Coordinates
40° 57' 8" N , 5° 30' 7" W
Metar
LESA 112230Z AUTO VRB02KT CAVOK 08/07 Q1022

Runways

Designator Length Width Surface Rops
8/26 2010 122 GRE No/No
3/21 2500 60 ASP No/No

Airport map

Aerial View

SKYbrary Partners:

Safety knowledge contributed by: